Time;durP1;ratioP1;P1;durP2;ratioP2;P2;SDS_P1;SDS_P2;PMS_P1;PMS_P2;Temp;Humidity;BMP_temperature;BMP_pressure;BME280_temperature;BME280_humidity;BME280_pressure;Samples;Min_cycle;Max_cycle;Signal;HPM_P1;HPM_P2
2021/06/20 00:00:20;;;;;;;22.30;8.52;;;24.60;99.90;;;;;;5091205;28;20028;-91
2021/06/20 00:02:47;;;;;;;31.70;8.52;;;24.70;99.90;;;;;;5095029;28;20070;-91
2021/06/20 00:05:19;;;;;;;25.30;8.85;;;24.70;99.90;;;;;;5094050;28;20024;-91
2021/06/20 00:07:45;;;;;;;23.15;8.25;;;24.70;99.90;;;;;;5093812;28;20032;-92
2021/06/20 00:10:14;;;;;;;28.77;8.70;;;24.80;99.90;;;;;;5093815;28;20077;-91
2021/06/20 00:12:40;;;;;;;20.98;8.15;;;24.70;99.90;;;;;;5091613;28;20015;-92
2021/06/20 00:15:09;;;;;;;22.25;8.38;;;24.60;99.90;;;;;;5109720;28;20036;-92
2021/06/20 00:17:36;;;;;;;21.75;7.47;;;24.70;99.90;;;;;;5089713;28;20216;-91
2021/06/20 00:20:03;;;;;;;21.98;8.13;;;24.70;99.90;;;;;;5088665;28;20028;-91
2021/06/20 00:22:29;;;;;;;22.48;8.48;;;24.60;99.90;;;;;;5093630;28;20087;-91
2021/06/20 00:24:55;;;;;;;20.98;8.07;;;24.60;99.90;;;;;;5093433;28;20295;-91
2021/06/20 00:27:20;;;;;;;22.85;7.85;;;24.40;99.90;;;;;;5107011;28;20024;-91
2021/06/20 00:29:46;;;;;;;20.50;7.97;;;24.50;99.90;;;;;;5094108;28;20067;-92
2021/06/20 00:32:11;;;;;;;21.20;8.20;;;24.40;99.90;;;;;;5093764;28;20040;-91
2021/06/20 00:34:37;;;;;;;24.17;8.85;;;24.50;99.90;;;;;;5093174;28;20036;-92
2021/06/20 00:37:04;;;;;;;23.92;8.63;;;24.40;99.90;;;;;;5092241;28;20494;-91
2021/06/20 00:39:30;;;;;;;21.70;8.27;;;24.40;99.90;;;;;;5093294;28;20496;-92
2021/06/20 00:41:56;;;;;;;20.48;8.25;;;24.40;99.90;;;;;;5093410;28;20033;-91
2021/06/20 00:44:21;;;;;;;19.05;8.10;;;24.30;99.90;;;;;;5095200;28;20067;-91
2021/06/20 00:46:47;;;;;;;23.63;9.00;;;24.40;99.90;;;;;;5092690;28;20024;-91
2021/06/20 00:49:13;;;;;;;26.00;7.72;;;24.30;99.90;;;;;;5091581;28;20028;-91
2021/06/20 00:51:40;;;;;;;22.15;7.75;;;24.30;99.90;;;;;;5091931;28;20063;-91
2021/06/20 00:54:05;;;;;;;23.83;8.27;;;24.20;99.90;;;;;;5092712;28;20040;-91
2021/06/20 00:56:33;;;;;;;25.80;8.63;;;24.30;99.90;;;;;;5095052;28;20031;-91
2021/06/20 00:59:02;;;;;;;24.98;8.73;;;24.40;99.90;;;;;;5092748;28;20035;-92
2021/06/20 01:01:34;;;;;;;22.52;8.27;;;24.40;99.90;;;;;;5093173;28;20118;-91
2021/06/20 01:04:01;;;;;;;22.50;7.93;;;24.40;99.90;;;;;;5093079;28;20028;-91
2021/06/20 01:06:28;;;;;;;23.73;7.90;;;24.30;99.90;;;;;;5091588;28;20464;-91
2021/06/20 01:08:55;;;;;;;17.58;8.15;;;24.30;99.90;;;;;;5092236;28;20387;-92
2021/06/20 01:11:21;;;;;;;21.95;7.95;;;24.30;99.90;;;;;;5093783;28;20046;-91
2021/06/20 01:13:47;;;;;;;23.20;8.63;;;24.30;99.90;;;;;;5086856;28;20479;-92
2021/06/20 01:16:14;;;;;;;20.58;8.35;;;24.20;99.90;;;;;;5089915;28;20068;-91
2021/06/20 01:18:40;;;;;;;20.63;8.40;;;24.10;99.90;;;;;;5092871;28;20023;-92
2021/06/20 01:21:07;;;;;;;20.50;7.93;;;24.20;99.90;;;;;;5092210;28;20020;-91
2021/06/20 01:23:33;;;;;;;23.33;7.95;;;24.20;99.90;;;;;;5094013;28;20020;-91
2021/06/20 01:26:00;;;;;;;21.85;8.10;;;24.00;99.90;;;;;;5108065;28;20071;-91
2021/06/20 01:28:28;;;;;;;26.40;8.80;;;24.00;99.90;;;;;;5105991;28;20027;-92
2021/06/20 01:30:58;;;;;;;25.02;8.82;;;24.00;99.90;;;;;;5091607;28;20096;-92
2021/06/20 01:33:25;;;;;;;19.42;7.75;;;24.00;99.90;;;;;;5107962;28;20047;-91
2021/06/20 01:35:50;;;;;;;20.25;8.52;;;24.10;99.90;;;;;;5091095;28;20031;-91
2021/06/20 01:38:16;;;;;;;23.52;8.95;;;24.10;99.90;;;;;;5092052;28;20036;-92
2021/06/20 01:40:42;;;;;;;24.27;9.02;;;24.00;99.90;;;;;;5090381;28;20076;-92
2021/06/20 01:43:08;;;;;;;19.52;8.00;;;24.00;99.90;;;;;;5090845;28;20028;-91
2021/06/20 01:45:36;;;;;;;24.63;8.82;;;24.10;99.90;;;;;;5092642;28;20020;-91
2021/06/20 01:48:03;;;;;;;22.33;8.77;;;24.10;99.90;;;;;;5092048;28;20023;-91
2021/06/20 01:50:30;;;;;;;29.30;8.60;;;24.00;99.90;;;;;;5094375;28;20092;-92
2021/06/20 01:53:16;;;;;;;22.15;8.23;;;24.10;99.90;;;;;;5091962;28;20036;-91
2021/06/20 01:55:44;;;;;;;25.25;8.45;;;24.10;99.90;;;;;;5091949;28;20032;-91
2021/06/20 01:58:13;;;;;;;22.95;8.15;;;24.00;99.90;;;;;;5089546;28;20023;-91
2021/06/20 02:00:40;;;;;;;23.55;8.07;;;23.90;99.90;;;;;;5090699;28;20152;-91
2021/06/20 02:03:11;;;;;;;21.90;8.27;;;23.90;99.90;;;;;;5073378;28;20020;-91
2021/06/20 02:05:39;;;;;;;22.20;8.05;;;24.00;99.90;;;;;;5073991;28;20029;-92
2021/06/20 02:08:05;;;;;;;19.20;8.45;;;23.90;99.90;;;;;;5092750;28;20035;-91
2021/06/20 02:10:30;;;;;;;20.50;10.07;;;23.90;99.90;;;;;;5088391;28;20023;-91
2021/06/20 02:12:56;;;;;;;25.02;7.72;;;23.80;99.90;;;;;;5089773;28;20081;-92
2021/06/20 02:15:23;;;;;;;20.75;8.30;;;23.80;99.90;;;;;;5090480;28;20032;-92
2021/06/20 02:17:49;;;;;;;19.02;8.50;;;23.80;99.90;;;;;;5091688;28;20052;-91
2021/06/20 02:20:18;;;;;;;22.27;8.00;;;23.80;99.90;;;;;;5093506;28;20047;-91
2021/06/20 02:22:46;;;;;;;22.25;8.40;;;23.90;99.90;;;;;;5106198;28;20032;-92
2021/06/20 02:25:15;;;;;;;22.55;8.60;;;23.80;99.90;;;;;;5091766;28;20055;-91
2021/06/20 02:27:42;;;;;;;21.60;8.18;;;23.80;99.90;;;;;;5091389;28;20384;-92
2021/06/20 02:30:09;;;;;;;18.05;8.18;;;23.80;99.90;;;;;;5092600;28;20016;-91
2021/06/20 02:32:36;;;;;;;20.92;8.48;;;23.90;99.90;;;;;;5093904;28;20042;-91
2021/06/20 02:35:02;;;;;;;23.92;9.02;;;23.70;99.90;;;;;;5090095;28;20081;-92
2021/06/20 02:37:28;;;;;;;21.40;8.13;;;23.70;99.90;;;;;;5104995;28;20587;-91
2021/06/20 02:39:55;;;;;;;20.02;8.25;;;23.80;99.90;;;;;;5091301;28;20040;-91
2021/06/20 02:42:21;;;;;;;21.17;8.23;;;23.80;99.90;;;;;;5090542;28;20563;-92
2021/06/20 02:44:46;;;;;;;17.80;8.40;;;23.60;99.90;;;;;;5091822;28;20039;-92
2021/06/20 02:47:13;;;;;;;20.48;8.95;;;23.60;99.90;;;;;;5092773;28;20536;-91
2021/06/20 02:49:40;;;;;;;23.25;8.77;;;23.60;99.90;;;;;;5105767;28;20057;-92
2021/06/20 02:52:07;;;;;;;23.92;9.07;;;23.70;99.90;;;;;;5090593;28;20101;-92
2021/06/20 02:54:33;;;;;;;19.30;8.50;;;23.60;99.90;;;;;;5091920;28;20455;-91
2021/06/20 02:56:59;;;;;;;24.60;9.20;;;23.60;99.90;;;;;;5090574;28;20040;-92
2021/06/20 02:59:26;;;;;;;23.98;8.93;;;23.60;99.90;;;;;;5091795;28;20020;-91
2021/06/20 03:01:51;;;;;;;22.75;9.63;;;23.60;99.90;;;;;;5090350;28;20032;-91
2021/06/20 03:04:17;;;;;;;22.83;9.45;;;23.60;99.90;;;;;;5105536;28;20038;-91
2021/06/20 03:06:43;;;;;;;21.27;8.73;;;23.70;99.90;;;;;;5088938;28;20028;-92
2021/06/20 03:09:09;;;;;;;21.27;9.18;;;23.60;99.90;;;;;;5106973;28;20024;-92
2021/06/20 03:11:41;;;;;;;25.48;9.05;;;23.50;99.90;;;;;;5093452;28;20043;-92
2021/06/20 03:14:16;;;;;;;24.27;9.70;;;23.50;99.90;;;;;;5091664;28;20057;-91
2021/06/20 03:16:43;;;;;;;25.77;8.88;;;23.50;99.90;;;;;;5089324;28;20020;-91
2021/06/20 03:19:10;;;;;;;24.52;8.98;;;23.40;99.90;;;;;;5091090;28;20035;-91
2021/06/20 03:21:36;;;;;;;25.27;9.10;;;23.30;99.90;;;;;;5089899;28;20027;-92
2021/06/20 03:24:02;;;;;;;17.65;8.95;;;23.50;99.90;;;;;;5091213;28;20036;-91
2021/06/20 03:26:32;;;;;;;20.50;9.15;;;23.60;99.90;;;;;;5091590;28;20044;-92
2021/06/20 03:28:59;;;;;;;22.38;8.70;;;23.70;99.90;;;;;;5091379;28;20058;-92
2021/06/20 03:31:25;;;;;;;21.23;8.90;;;23.70;99.90;;;;;;5089525;28;20474;-92
2021/06/20 03:33:51;;;;;;;20.80;9.38;;;23.70;99.90;;;;;;5088987;28;20052;-92
2021/06/20 03:36:18;;;;;;;22.02;9.43;;;23.70;99.90;;;;;;5090333;28;20051;-92
2021/06/20 03:38:43;;;;;;;20.73;8.55;;;23.80;99.90;;;;;;5091305;28;20032;-92
2021/06/20 03:41:10;;;;;;;23.17;8.98;;;23.90;99.90;;;;;;5091368;28;20353;-91
2021/06/20 03:43:37;;;;;;;20.30;8.70;;;23.80;99.90;;;;;;5090887;28;20031;-92
2021/06/20 03:46:03;;;;;;;20.27;8.43;;;23.80;99.90;;;;;;5090274;28;20381;-92
2021/06/20 03:48:29;;;;;;;22.23;8.93;;;23.90;99.90;;;;;;5089125;28;20031;-91
2021/06/20 03:50:55;;;;;;;23.60;8.65;;;23.80;99.90;;;;;;5090870;28;20032;-91
2021/06/20 03:53:20;;;;;;;24.23;8.63;;;23.80;99.90;;;;;;5094434;28;20032;-91
2021/06/20 03:55:46;;;;;;;21.73;9.05;;;23.80;99.90;;;;;;5095026;28;20036;-92
2021/06/20 03:58:12;;;;;;;24.98;8.68;;;23.80;99.90;;;;;;5092318;28;20020;-92
2021/06/20 04:00:37;;;;;;;19.73;9.35;;;23.70;99.90;;;;;;5105680;28;20035;-92
2021/06/20 04:03:04;;;;;;;21.63;9.23;;;23.70;99.90;;;;;;5093255;28;20032;-92
2021/06/20 04:05:31;;;;;;;16.73;8.40;;;23.70;99.90;;;;;;5095594;28;20024;-92
2021/06/20 04:07:56;;;;;;;25.48;9.00;;;23.80;99.90;;;;;;5108852;28;20032;-92
2021/06/20 04:10:22;;;;;;;23.45;8.85;;;23.80;99.90;;;;;;5094583;28;20609;-92
2021/06/20 04:12:48;;;;;;;23.23;9.18;;;23.90;99.90;;;;;;5092703;28;20031;-92
2021/06/20 04:15:14;;;;;;;21.13;8.77;;;23.90;99.90;;;;;;5093668;28;20046;-91
2021/06/20 04:17:40;;;;;;;21.77;9.10;;;23.90;99.90;;;;;;5094239;28;20025;-92
2021/06/20 04:20:07;;;;;;;21.38;8.70;;;23.90;99.90;;;;;;5093506;28;20035;-92
2021/06/20 04:22:33;;;;;;;29.85;9.30;;;23.80;99.90;;;;;;5092288;28;20043;-92
2021/06/20 04:25:00;;;;;;;26.38;9.10;;;23.80;99.90;;;;;;5103878;28;20032;-91
2021/06/20 04:27:25;;;;;;;20.70;8.90;;;23.70;99.90;;;;;;5095865;28;20024;-92
2021/06/20 04:29:51;;;;;;;23.67;8.75;;;23.80;99.90;;;;;;5093466;28;20031;-92
2021/06/20 04:32:17;;;;;;;25.30;8.85;;;23.80;99.90;;;;;;5093277;28;20473;-93
2021/06/20 04:34:42;;;;;;;20.55;8.57;;;23.80;99.90;;;;;;5087584;28;20676;-91
2021/06/20 04:37:08;;;;;;;23.90;9.18;;;23.60;99.90;;;;;;5093547;28;20389;-92
2021/06/20 04:39:34;;;;;;;21.63;9.82;;;23.60;99.90;;;;;;5091709;28;20031;-92
2021/06/20 04:42:00;;;;;;;16.60;8.38;;;23.60;99.90;;;;;;5093672;28;20027;-92
2021/06/20 04:44:45;;;;;;;22.95;9.77;;;23.70;99.90;;;;;;5094524;28;20031;-92
2021/06/20 04:47:16;;;;;;;21.55;9.10;;;23.80;99.90;;;;;;5092074;28;20020;-92
2021/06/20 04:49:42;;;;;;;18.10;8.85;;;23.90;99.90;;;;;;5093219;28;20032;-92
2021/06/20 04:52:10;;;;;;;20.02;8.35;;;24.00;99.90;;;;;;5093525;28;20023;-92
2021/06/20 04:54:48;;;;;;;23.35;8.35;;;23.90;99.90;;;;;;5090554;28;20516;-92
2021/06/20 04:57:15;;;;;;;23.38;8.52;;;23.80;99.90;;;;;;5077369;28;20115;-92
2021/06/20 04:59:40;;;;;;;21.10;8.85;;;24.00;99.90;;;;;;5094461;28;20063;-92
2021/06/20 05:02:06;;;;;;;21.17;9.45;;;24.10;99.90;;;;;;5092447;28;20055;-92
2021/06/20 05:04:32;;;;;;;19.55;8.57;;;24.10;99.90;;;;;;5091501;28;20081;-91
2021/06/20 05:06:58;;;;;;;18.33;8.43;;;24.10;99.90;;;;;;5090906;28;20024;-92
2021/06/20 05:09:23;;;;;;;25.23;9.82;;;24.20;99.90;;;;;;5090953;28;20020;-91
2021/06/20 05:11:49;;;;;;;21.05;9.20;;;24.20;99.90;;;;;;5094439;28;20024;-92
2021/06/20 05:14:15;;;;;;;19.30;9.13;;;24.20;99.90;;;;;;5092913;28;20036;-92
2021/06/20 05:16:40;;;;;;;26.50;9.45;;;24.30;99.90;;;;;;5089623;28;20103;-92
2021/06/20 05:19:06;;;;;;;22.90;9.27;;;24.20;99.90;;;;;;5108848;28;20028;-92
2021/06/20 05:21:34;;;;;;;20.98;8.85;;;24.20;99.90;;;;;;5092644;28;20508;-91
2021/06/20 05:24:00;;;;;;;21.67;9.20;;;24.30;99.90;;;;;;5092387;28;20020;-93
2021/06/20 05:26:26;;;;;;;23.80;9.18;;;24.30;99.90;;;;;;5094453;28;20024;-94
2021/06/20 05:28:51;;;;;;;23.67;9.07;;;24.40;99.90;;;;;;5107428;28;20020;-94
2021/06/20 05:31:17;;;;;;;19.67;9.60;;;24.30;99.90;;;;;;5108157;28;20399;-93
2021/06/20 05:33:43;;;;;;;19.60;8.38;;;24.30;99.90;;;;;;5086417;28;20080;-93
2021/06/20 05:36:08;;;;;;;18.60;8.80;;;24.20;99.90;;;;;;5090813;28;20032;-94
2021/06/20 05:38:34;;;;;;;22.00;8.77;;;24.20;99.90;;;;;;5090530;28;20024;-93
2021/06/20 05:40:59;;;;;;;25.40;8.73;;;24.20;99.90;;;;;;5091963;28;20032;-94
2021/06/20 05:43:25;;;;;;;19.70;8.98;;;24.20;99.90;;;;;;5092907;28;20020;-93
2021/06/20 05:45:51;;;;;;;18.52;8.70;;;24.20;99.90;;;;;;5108012;28;20123;-93
2021/06/20 05:48:17;;;;;;;22.50;9.18;;;24.30;99.90;;;;;;5107151;28;20535;-93
2021/06/20 05:50:43;;;;;;;19.42;8.77;;;24.30;99.90;;;;;;5092915;28;20031;-93
2021/06/20 05:53:08;;;;;;;24.30;8.80;;;24.30;99.90;;;;;;5092157;28;20036;-92
2021/06/20 05:55:34;;;;;;;25.95;8.93;;;24.30;99.90;;;;;;5108396;28;20036;-93
2021/06/20 05:58:00;;;;;;;20.05;8.23;;;24.40;99.90;;;;;;5092065;28;20063;-93
2021/06/20 06:00:25;;;;;;;18.48;8.40;;;24.50;99.90;;;;;;5107923;28;20031;-93
2021/06/20 06:02:51;;;;;;;24.27;9.68;;;24.60;99.90;;;;;;5091631;28;20016;-93
2021/06/20 06:05:16;;;;;;;19.10;9.02;;;24.70;99.90;;;;;;5092782;28;20028;-93
2021/06/20 06:07:44;;;;;;;19.60;8.82;;;24.70;99.90;;;;;;5091927;28;20103;-92
2021/06/20 06:10:10;;;;;;;24.30;8.65;;;24.90;99.90;;;;;;5108252;28;20081;-93
2021/06/20 06:12:36;;;;;;;18.25;9.00;;;25.10;99.90;;;;;;5092007;28;20020;-94
2021/06/20 06:15:02;;;;;;;19.52;8.45;;;25.10;99.90;;;;;;5107149;28;20159;-92
2021/06/20 06:17:28;;;;;;;23.42;9.50;;;25.10;99.90;;;;;;5092947;28;20050;-93
2021/06/20 06:19:54;;;;;;;20.30;8.70;;;25.20;99.90;;;;;;5107775;28;20032;-92
2021/06/20 06:22:21;;;;;;;23.00;8.50;;;25.10;99.90;;;;;;5107843;28;20073;-93
2021/06/20 06:24:47;;;;;;;22.13;8.60;;;25.10;99.90;;;;;;5092020;28;20028;-93
2021/06/20 06:27:14;;;;;;;22.73;9.10;;;25.00;99.90;;;;;;5090875;28;20032;-93
2021/06/20 06:29:40;;;;;;;22.95;9.18;;;25.20;99.90;;;;;;5093030;28;20473;-93
2021/06/20 06:32:07;;;;;;;21.10;8.10;;;25.20;99.90;;;;;;5090796;28;20139;-94
2021/06/20 06:34:34;;;;;;;19.65;7.97;;;25.30;99.90;;;;;;5099565;28;20051;-93
2021/06/20 06:37:00;;;;;;;19.10;7.80;;;25.10;99.90;;;;;;5089719;28;20114;-93
2021/06/20 06:39:27;;;;;;;22.83;9.35;;;25.20;99.90;;;;;;5110292;28;20066;-93
2021/06/20 06:41:53;;;;;;;29.70;7.97;;;25.20;99.90;;;;;;5092391;28;20074;-92
2021/06/20 06:44:19;;;;;;;25.63;7.80;;;25.40;99.90;;;;;;5092251;28;20407;-93
2021/06/20 06:46:44;;;;;;;33.17;8.13;;;25.40;99.90;;;;;;5091195;28;20073;-93
2021/06/20 06:49:10;;;;;;;35.22;8.38;;;25.30;99.90;;;;;;5091481;28;20533;-93
2021/06/20 06:51:36;;;;;;;27.95;7.50;;;25.20;99.90;;;;;;5106037;28;20046;-93
2021/06/20 06:54:02;;;;;;;24.42;8.25;;;25.40;99.90;;;;;;5090181;28;20024;-93
2021/06/20 06:56:28;;;;;;;24.23;7.93;;;25.40;99.90;;;;;;5092777;28;20028;-94
2021/06/20 06:58:53;;;;;;;32.58;8.13;;;25.40;99.90;;;;;;5105872;28;20480;-93
2021/06/20 07:01:19;;;;;;;26.40;7.53;;;25.50;99.90;;;;;;5105820;28;20028;-93
2021/06/20 07:03:45;;;;;;;25.58;7.82;;;25.40;99.90;;;;;;5103019;28;20025;-93
2021/06/20 07:06:11;;;;;;;28.35;8.20;;;25.60;99.90;;;;;;5107514;28;20021;-93
2021/06/20 07:08:37;;;;;;;27.85;8.27;;;25.80;99.90;;;;;;5093593;28;20028;-93
2021/06/20 07:11:03;;;;;;;29.75;8.25;;;26.00;99.90;;;;;;5090652;28;20031;-93
2021/06/20 07:13:29;;;;;;;33.70;8.13;;;26.00;99.90;;;;;;5089804;28;20480;-94
2021/06/20 07:15:54;;;;;;;30.52;7.30;;;26.10;99.90;;;;;;5090981;28;20078;-93
2021/06/20 07:18:20;;;;;;;26.17;7.70;;;26.20;99.90;;;;;;5107144;28;20065;-93
2021/06/20 07:20:47;;;;;;;29.20;7.90;;;26.20;99.90;;;;;;5092096;28;20028;-93
2021/06/20 07:23:13;;;;;;;33.28;7.78;;;26.30;99.90;;;;;;5091767;28;20051;-93
2021/06/20 07:25:39;;;;;;;32.45;7.22;;;26.40;99.90;;;;;;5093419;28;20123;-93
2021/06/20 07:28:05;;;;;;;27.38;8.27;;;26.30;99.90;;;;;;5093185;28;20487;-92
2021/06/20 07:30:32;;;;;;;26.95;7.30;;;26.30;99.90;;;;;;5095567;28;20024;-94
2021/06/20 07:32:58;;;;;;;27.95;7.05;;;26.30;99.90;;;;;;5093596;28;20554;-93
2021/06/20 07:35:24;;;;;;;30.85;8.05;;;26.10;99.90;;;;;;5096424;28;20051;-93
2021/06/20 07:37:50;;;;;;;27.13;7.72;;;26.00;99.90;;;;;;5109620;28;20031;-93
2021/06/20 07:40:16;;;;;;;29.23;7.60;;;26.40;99.90;;;;;;5091823;28;20024;-94
2021/06/20 07:42:42;;;;;;;33.67;8.00;;;26.60;99.90;;;;;;5093095;28;20027;-93
2021/06/20 07:45:08;;;;;;;28.77;8.27;;;26.80;99.90;;;;;;5095339;28;20025;-93
2021/06/20 07:47:36;;;;;;;24.33;7.50;;;26.90;99.90;;;;;;5076249;28;20492;-94
2021/06/20 07:50:08;;;;;;;26.77;8.10;;;27.20;99.90;;;;;;5093556;28;20032;-93
2021/06/20 07:52:34;;;;;;;27.75;7.60;;;27.40;99.90;;;;;;5109306;28;20088;-94
2021/06/20 07:55:01;;;;;;;29.15;7.60;;;27.40;99.90;;;;;;5094416;28;20534;-94
2021/06/20 07:57:27;;;;;;;29.90;7.80;;;27.40;99.90;;;;;;5093547;28;20480;-93
2021/06/20 07:59:53;;;;;;;35.53;8.75;;;27.60;99.90;;;;;;5095325;28;20082;-93
2021/06/20 08:02:18;;;;;;;27.80;7.10;;;27.60;99.90;;;;;;5095141;28;20085;-93
2021/06/20 08:04:45;;;;;;;32.70;7.93;;;27.80;99.90;;;;;;5094621;28;20024;-93
2021/06/20 08:07:12;;;;;;;27.90;7.65;;;27.80;99.90;;;;;;5109057;28;20451;-93
2021/06/20 08:09:37;;;;;;;25.25;6.85;;;27.70;99.90;;;;;;5111572;28;20024;-93
2021/06/20 08:12:04;;;;;;;27.27;6.80;;;27.80;99.90;;;;;;5094173;28;20031;-92
2021/06/20 08:14:30;;;;;;;27.63;7.40;;;27.80;99.90;;;;;;5094702;28;20032;-94
2021/06/20 08:16:56;;;;;;;31.10;7.85;;;28.00;99.90;;;;;;5098206;28;20111;-93
2021/06/20 08:19:22;;;;;;;27.52;7.03;;;28.10;99.90;;;;;;5094027;28;20100;-92
2021/06/20 08:21:48;;;;;;;30.92;7.40;;;28.20;99.90;;;;;;5092701;28;20353;-93
2021/06/20 08:24:14;;;;;;;29.88;6.97;;;28.30;99.90;;;;;;5093478;28;20488;-93
2021/06/20 08:26:40;;;;;;;30.85;7.47;;;28.10;99.90;;;;;;5094990;28;20024;-93
2021/06/20 08:29:06;;;;;;;25.65;6.47;;;28.10;99.90;;;;;;5095724;28;20036;-93
2021/06/20 08:31:33;;;;;;;38.25;8.48;;;28.30;99.90;;;;;;5092937;28;20023;-93
2021/06/20 08:33:58;;;;;;;30.20;7.60;;;28.50;99.90;;;;;;5109480;28;20058;-91
2021/06/20 08:36:24;;;;;;;33.55;7.00;;;28.60;99.90;;;;;;5091818;28;20119;-92
2021/06/20 08:38:50;;;;;;;36.17;7.15;;;28.60;99.90;;;;;;5092317;28;20066;-94
2021/06/20 08:41:16;;;;;;;30.02;6.57;;;28.50;99.90;;;;;;5095603;28;20036;-95
2021/06/20 08:43:44;;;;;;;28.98;6.93;;;28.70;99.90;;;;;;5091525;28;20055;-93
2021/06/20 08:46:10;;;;;;;32.20;7.18;;;28.90;99.90;;;;;;5108858;28;20024;-93
2021/06/20 08:48:37;;;;;;;32.40;6.82;;;29.00;99.90;;;;;;5109566;28;20055;-94
2021/06/20 08:51:03;;;;;;;31.00;6.75;;;29.20;99.90;;;;;;5093173;28;20020;-94
2021/06/20 08:53:29;;;;;;;32.90;7.25;;;29.10;99.90;;;;;;5094814;28;20044;-93
2021/06/20 08:55:54;;;;;;;32.72;7.00;;;29.00;99.90;;;;;;5093622;28;20114;-93
2021/06/20 08:58:23;;;;;;;29.08;6.15;;;29.10;99.90;;;;;;5109234;28;20024;-93
2021/06/20 09:00:50;;;;;;;27.20;6.13;;;29.10;99.90;;;;;;5093222;28;20032;-93
2021/06/20 09:03:16;;;;;;;31.48;6.40;;;29.00;99.90;;;;;;5093024;28;20020;-91
2021/06/20 09:06:03;;;;;;;23.30;6.18;;;29.20;99.90;;;;;;5094589;28;20123;-93
2021/06/20 09:08:30;;;;;;;32.33;6.70;;;29.40;99.90;;;;;;5089415;28;20020;-92
2021/06/20 09:10:57;;;;;;;30.75;6.38;;;29.70;99.90;;;;;;5093515;28;20032;-92
2021/06/20 09:13:31;;;;;;;24.13;6.03;;;29.90;99.90;;;;;;5084913;28;20023;-91
2021/06/20 09:16:00;;;;;;;32.13;6.75;;;30.20;99.90;;;;;;5091265;28;20055;-92
2021/06/20 09:18:26;;;;;;;25.42;6.60;;;30.40;99.90;;;;;;5092914;28;20376;-91
2021/06/20 09:20:52;;;;;;;26.33;6.85;;;30.50;99.90;;;;;;5092391;28;20032;-94
2021/06/20 09:23:18;;;;;;;28.77;6.88;;;30.70;99.90;;;;;;5092621;28;20039;-93
2021/06/20 09:25:52;;;;;;;36.75;8.13;;;30.70;99.90;;;;;;5091708;28;20119;-93
2021/06/20 09:28:18;;;;;;;23.65;6.53;;;30.60;99.90;;;;;;5086408;28;20020;-92
2021/06/20 09:30:49;;;;;;;29.35;6.90;;;30.70;99.90;;;;;;5086262;28;20043;-93
2021/06/20 09:33:16;;;;;;;35.03;6.45;;;30.70;99.90;;;;;;5090720;28;20044;-92
2021/06/20 09:35:44;;;;;;;26.58;5.82;;;30.70;99.90;;;;;;5092818;28;20036;-91
2021/06/20 09:38:19;;;;;;;31.17;7.10;;;30.60;99.90;;;;;;5094673;28;20048;-92
2021/06/20 09:40:46;;;;;;;30.15;6.63;;;30.90;99.90;;;;;;5088173;28;20031;-91
2021/06/20 09:43:14;;;;;;;33.35;5.88;;;30.60;99.90;;;;;;5102147;28;20028;-90
2021/06/20 09:45:43;;;;;;;31.35;6.38;;;30.30;99.90;;;;;;5088943;28;20053;-91
2021/06/20 09:48:19;;;;;;;33.30;6.38;;;30.70;99.90;;;;;;5076497;28;20543;-92
2021/06/20 09:50:45;;;;;;;26.55;6.07;;;30.40;99.90;;;;;;5090135;28;20032;-92
2021/06/20 09:53:10;;;;;;;25.25;6.72;;;30.30;99.90;;;;;;5092201;28;20016;-93
2021/06/20 09:55:36;;;;;;;37.20;7.05;;;30.30;99.90;;;;;;5097252;28;20127;-92
2021/06/20 09:58:03;;;;;;;35.75;7.28;;;30.20;99.90;;;;;;5107816;28;20028;-92
2021/06/20 10:00:41;;;;;;;31.75;6.55;;;30.10;99.90;;;;;;5106031;28;20052;-92
2021/06/20 10:03:20;;;;;;;27.00;6.57;;;29.20;99.90;;;;;;5089898;28;20031;-91
2021/06/20 10:05:47;;;;;;;26.23;6.05;;;28.90;99.90;;;;;;5090026;28;20024;-91
2021/06/20 10:08:13;;;;;;;31.52;5.90;;;28.70;99.90;;;;;;5103911;28;20107;-91
2021/06/20 10:10:38;;;;;;;31.77;6.22;;;28.50;99.90;;;;;;5091013;28;20499;-91
2021/06/20 10:13:04;;;;;;;31.27;6.93;;;28.40;99.90;;;;;;5081608;28;20028;-92
2021/06/20 10:15:31;;;;;;;32.08;6.57;;;28.20;99.90;;;;;;5104479;28;20126;-96
2021/06/20 10:18:14;;;;;;;27.40;6.15;;;28.00;99.90;;;;;;5282870;22;20752;-96
2021/06/20 10:20:40;;;;;;;32.75;7.30;;;27.80;99.90;;;;;;5043349;28;20029;-94
2021/06/20 10:23:17;;;;;;;23.85;5.88;;;21.30;99.90;;;;;;5024552;28;20080;-87
2021/06/20 10:25:43;;;;;;;30.42;6.88;;;20.70;99.90;;;;;;5034295;28;20113;-91
2021/06/20 10:28:14;;;;;;;35.55;7.85;;;20.70;99.90;;;;;;5034280;28;20053;-95
2021/06/20 10:30:42;;;;;;;30.20;7.10;;;21.10;99.90;;;;;;5019867;28;20032;-91
2021/06/20 10:33:11;;;;;;;30.75;7.85;;;21.00;99.90;;;;;;5019889;28;20025;-96
2021/06/20 10:35:38;;;;;;;34.47;7.68;;;21.20;99.90;;;;;;5034160;28;20048;-96
2021/06/20 10:38:04;;;;;;;32.83;8.38;;;21.40;99.90;;;;;;5034107;28;20053;-96
2021/06/20 10:40:36;;;;;;;38.85;8.80;;;21.80;99.90;;;;;;5019574;28;20493;-91
2021/06/20 10:43:20;;;;;;;25.88;6.55;;;22.40;99.90;;;;;;5033226;28;20074;-92
2021/06/20 10:45:47;;;;;;;30.15;6.63;;;21.70;99.90;;;;;;5031765;28;20112;-86
2021/06/20 10:48:15;;;;;;;26.42;6.53;;;21.80;99.90;;;;;;5030014;28;20116;-88
2021/06/20 10:50:52;;;;;;;21.83;6.03;;;22.00;99.90;;;;;;5031530;28;20025;-89
2021/06/20 10:53:19;;;;;;;23.83;6.18;;;22.10;99.90;;;;;;5033619;28;20109;-89
2021/06/20 10:55:49;;;;;;;25.13;5.60;;;22.20;99.90;;;;;;5031057;28;20047;-89
2021/06/20 10:58:28;;;;;;;27.58;6.32;;;22.30;99.90;;;;;;5031023;28;20048;-89
2021/06/20 11:01:17;;;;;;;23.42;5.63;;;22.50;99.90;;;;;;5031234;28;20056;-88
2021/06/20 11:03:52;;;;;;;28.98;6.07;;;23.10;99.90;;;;;;5035596;28;20030;-89
2021/06/20 11:06:20;;;;;;;26.40;6.53;;;23.60;99.90;;;;;;5036802;28;20398;-94
2021/06/20 11:09:00;;;;;;;35.47;5.25;;;23.50;99.90;;;;;;5038765;28;20037;-90
2021/06/20 11:11:28;;;;;;;23.10;5.30;;;23.30;99.90;;;;;;5037115;28;20093;-91
2021/06/20 11:13:56;;;;;;;25.13;5.15;;;23.50;99.90;;;;;;5036103;28;20132;-92
2021/06/20 11:16:46;;;;;;;21.52;4.65;;;23.40;99.90;;;;;;5036524;28;20025;-93
2021/06/20 11:19:17;;;;;;;19.65;5.28;;;23.30;99.90;;;;;;5036285;28;20051;-91
2021/06/20 11:21:56;;;;;;;20.85;5.72;;;23.10;99.90;;;;;;5022233;28;20546;-92
2021/06/20 11:24:29;;;;;;;24.83;5.50;;;23.20;99.90;;;;;;5036853;28;20022;-92
2021/06/20 11:27:05;;;;;;;20.48;5.22;;;23.20;99.90;;;;;;5035814;28;20033;-92
2021/06/20 11:29:52;;;;;;;18.35;6.05;;;23.40;99.90;;;;;;5019583;28;20485;-92
2021/06/20 11:32:24;;;;;;;21.23;4.75;;;24.20;99.90;;;;;;5034229;28;20404;-92
2021/06/20 11:35:04;;;;;;;22.95;5.63;;;24.70;99.90;;;;;;5035711;28;20111;-93
2021/06/20 11:37:34;;;;;;;25.52;5.78;;;25.50;99.90;;;;;;5022296;28;20025;-92
2021/06/20 11:40:10;;;;;;;18.67;4.55;;;25.90;99.90;;;;;;5036082;28;20029;-93
2021/06/20 11:42:41;;;;;;;18.70;4.82;;;26.50;99.90;;;;;;5036533;28;20018;-94
2021/06/20 11:45:09;;;;;;;14.85;4.75;;;26.70;99.90;;;;;;5020470;28;20390;-93
2021/06/20 11:47:49;;;;;;;14.43;3.55;;;27.50;99.90;;;;;;5032250;28;20037;-93
2021/06/20 11:50:15;;;;;;;12.13;3.03;;;27.10;99.90;;;;;;5021344;28;20052;-94
2021/06/20 11:52:46;;;;;;;15.10;3.28;;;27.20;99.90;;;;;;5037763;28;20045;-95
2021/06/20 11:55:20;;;;;;;14.35;3.15;;;27.30;99.90;;;;;;5037025;28;20108;-94
2021/06/20 11:57:48;;;;;;;12.93;3.40;;;27.00;99.90;;;;;;5037206;28;20196;-93
2021/06/20 12:00:25;;;;;;;13.32;3.22;;;27.50;99.90;;;;;;5035954;28;20013;-94
2021/06/20 12:03:01;;;;;;;13.63;3.22;;;27.90;99.90;;;;;;5035394;28;20512;-93
2021/06/20 12:05:27;;;;;;;13.75;3.60;;;28.60;99.90;;;;;;5035290;28;20033;-94
2021/06/20 12:07:57;;;;;;;16.35;3.80;;;28.80;99.90;;;;;;5022348;28;20498;-94
2021/06/20 12:10:22;;;;;;;12.20;3.60;;;28.60;99.90;;;;;;5036065;28;20029;-93
2021/06/20 12:13:01;;;;;;;11.68;3.40;;;29.40;99.90;;;;;;5036665;28;20052;-94
2021/06/20 12:15:27;;;;;;;11.88;3.08;;;30.10;99.90;;;;;;5035921;28;20034;-94
2021/06/20 12:17:53;;;;;;;14.43;3.42;;;31.00;99.90;;;;;;5036528;28;20482;-94
2021/06/20 12:20:29;;;;;;;11.88;3.30;;;30.40;99.90;;;;;;5025678;28;20082;-94
2021/06/20 12:22:55;;;;;;;12.02;3.20;;;30.20;99.90;;;;;;5036962;28;20029;-94
2021/06/20 12:25:21;;;;;;;14.70;3.35;;;32.30;99.90;;;;;;5022613;28;20033;-94
2021/06/20 12:27:47;;;;;;;12.25;3.42;;;33.50;99.90;;;;;;5036691;28;20026;-94
2021/06/20 12:30:15;;;;;;;10.75;3.25;;;33.80;99.90;;;;;;5034972;28;20037;-93
2021/06/20 12:32:41;;;;;;;12.60;3.15;;;33.80;99.90;;;;;;5035816;28;20013;-94
2021/06/20 12:35:07;;;;;;;15.48;3.47;;;31.70;99.90;;;;;;5037196;28;20037;-93
2021/06/20 12:37:41;;;;;;;14.27;3.38;;;32.50;99.90;;;;;;5035602;28;20025;-93